sensor_id;sensor_type;location;lat;lon;timestamp;pressure;altitude;pressure_sealevel;temperature;humidity
22000;BME280;11164;48.818;2.322;2023-04-25T00:02:16;100195.81;;;12.09;41.51
22000;BME280;11164;48.818;2.322;2023-04-25T00:04:42;100195.31;;;11.87;41.82
22000;BME280;11164;48.818;2.322;2023-04-25T00:07:08;100190.69;;;11.94;41.99
22000;BME280;11164;48.818;2.322;2023-04-25T00:09:34;100187.13;;;12.00;41.85
22000;BME280;11164;48.818;2.322;2023-04-25T00:11:59;100189.94;;;12.12;41.72
22000;BME280;11164;48.818;2.322;2023-04-25T00:14:26;100185.94;;;11.90;41.99
22000;BME280;11164;48.818;2.322;2023-04-25T00:16:52;100185.88;;;11.96;41.61
22000;BME280;11164;48.818;2.322;2023-04-25T00:19:18;100193.13;;;12.03;41.49
22000;BME280;11164;48.818;2.322;2023-04-25T00:21:44;100186.03;;;12.08;41.49
22000;BME280;11164;48.818;2.322;2023-04-25T00:24:11;100184.56;;;12.06;41.60
22000;BME280;11164;48.818;2.322;2023-04-25T00:26:37;100191.50;;;11.95;41.71
22000;BME280;11164;48.818;2.322;2023-04-25T00:29:03;100186.25;;;12.07;41.50
22000;BME280;11164;48.818;2.322;2023-04-25T00:31:28;100188.03;;;11.88;41.82
22000;BME280;11164;48.818;2.322;2023-04-25T00:33:54;100191.09;;;11.53;42.60
22000;BME280;11164;48.818;2.322;2023-04-25T00:36:19;100189.16;;;11.67;42.14
22000;BME280;11164;48.818;2.322;2023-04-25T00:38:45;100186.44;;;11.67;42.27
22000;BME280;11164;48.818;2.322;2023-04-25T00:41:10;100169.81;;;11.70;42.14
22000;BME280;11164;48.818;2.322;2023-04-25T00:43:36;100180.03;;;11.68;42.21
22000;BME280;11164;48.818;2.322;2023-04-25T00:46:02;100183.13;;;11.78;42.06
22000;BME280;11164;48.818;2.322;2023-04-25T00:48:27;100189.91;;;11.87;42.04
22000;BME280;11164;48.818;2.322;2023-04-25T00:50:55;100185.72;;;11.91;41.82
22000;BME280;11164;48.818;2.322;2023-04-25T00:53:21;100180.31;;;11.91;41.85
22000;BME280;11164;48.818;2.322;2023-04-25T00:55:47;100181.97;;;11.92;41.78
22000;BME280;11164;48.818;2.322;2023-04-25T00:58:13;100188.66;;;11.83;42.10
22000;BME280;11164;48.818;2.322;2023-04-25T01:00:39;100189.72;;;11.82;42.04
22000;BME280;11164;48.818;2.322;2023-04-25T01:03:05;100196.41;;;11.73;42.09
22000;BME280;11164;48.818;2.322;2023-04-25T01:05:31;100187.88;;;11.69;42.28
22000;BME280;11164;48.818;2.322;2023-04-25T01:07:56;100195.41;;;11.60;42.38
22000;BME280;11164;48.818;2.322;2023-04-25T01:10:22;100191.66;;;11.68;42.23
22000;BME280;11164;48.818;2.322;2023-04-25T01:12:47;100182.09;;;11.66;42.52
22000;BME280;11164;48.818;2.322;2023-04-25T01:15:13;100188.56;;;11.58;42.85
22000;BME280;11164;48.818;2.322;2023-04-25T01:17:40;100189.81;;;11.55;42.87
22000;BME280;11164;48.818;2.322;2023-04-25T01:20:06;100188.56;;;11.58;42.87
22000;BME280;11164;48.818;2.322;2023-04-25T01:22:32;100178.59;;;11.58;42.95
22000;BME280;11164;48.818;2.322;2023-04-25T01:24:59;100186.50;;;11.53;43.18
22000;BME280;11164;48.818;2.322;2023-04-25T01:27:25;100179.91;;;11.49;43.22
22000;BME280;11164;48.818;2.322;2023-04-25T01:29:51;100167.75;;;11.65;42.72
22000;BME280;11164;48.818;2.322;2023-04-25T01:32:17;100178.13;;;11.68;43.05
22000;BME280;11164;48.818;2.322;2023-04-25T01:34:43;100187.56;;;11.52;43.28
22000;BME280;11164;48.818;2.322;2023-04-25T01:37:08;100180.66;;;11.63;42.93
22000;BME280;11164;48.818;2.322;2023-04-25T01:39:34;100169.75;;;11.83;42.48
22000;BME280;11164;48.818;2.322;2023-04-25T01:42:00;100178.59;;;11.58;43.05
22000;BME280;11164;48.818;2.322;2023-04-25T01:44:25;100177.34;;;11.61;43.11
22000;BME280;11164;48.818;2.322;2023-04-25T01:46:51;100175.47;;;11.61;42.88
22000;BME280;11164;48.818;2.322;2023-04-25T01:49:17;100177.97;;;11.63;42.88
22000;BME280;11164;48.818;2.322;2023-04-25T01:51:42;100177.50;;;11.73;42.91
22000;BME280;11164;48.818;2.322;2023-04-25T01:54:08;100168.41;;;11.60;42.96
22000;BME280;11164;48.818;2.322;2023-04-25T01:56:37;100183.34;;;11.63;43.02
22000;BME280;11164;48.818;2.322;2023-04-25T01:59:03;100178.63;;;11.52;43.14
22000;BME280;11164;48.818;2.322;2023-04-25T02:01:29;100178.41;;;11.53;42.99
22000;BME280;11164;48.818;2.322;2023-04-25T02:03:55;100186.50;;;11.53;43.18
22000;BME280;11164;48.818;2.322;2023-04-25T02:06:20;100172.00;;;11.48;43.40
22000;BME280;11164;48.818;2.322;2023-04-25T02:08:45;100189.19;;;11.60;43.14
22000;BME280;11164;48.818;2.322;2023-04-25T02:11:11;100181.03;;;11.21;44.32
22000;BME280;11164;48.818;2.322;2023-04-25T02:13:36;100185.94;;;11.38;43.85
22000;BME280;11164;48.818;2.322;2023-04-25T02:16:01;100188.41;;;11.46;43.57
22000;BME280;11164;48.818;2.322;2023-04-25T02:18:27;100186.78;;;11.45;43.51
22000;BME280;11164;48.818;2.322;2023-04-25T02:20:52;100184.16;;;11.18;43.98
22000;BME280;11164;48.818;2.322;2023-04-25T02:23:17;100189.78;;;11.17;44.13
22000;BME280;11164;48.818;2.322;2023-04-25T02:25:44;100191.03;;;11.21;43.90
22000;BME280;11164;48.818;2.322;2023-04-25T02:28:09;100184.94;;;11.32;43.72
22000;BME280;11164;48.818;2.322;2023-04-25T02:30:35;100185.75;;;11.39;43.83
22000;BME280;11164;48.818;2.322;2023-04-25T02:33:01;100184.91;;;11.39;43.85
22000;BME280;11164;48.818;2.322;2023-04-25T02:35:26;100195.09;;;11.43;43.79
22000;BME280;11164;48.818;2.322;2023-04-25T02:37:52;100195.31;;;11.35;43.84
22000;BME280;11164;48.818;2.322;2023-04-25T02:40:17;100194.75;;;11.72;43.44
22000;BME280;11164;48.818;2.322;2023-04-25T02:42:43;100193.63;;;11.86;42.87
22000;BME280;11164;48.818;2.322;2023-04-25T02:45:10;100197.03;;;11.75;43.11
22000;BME280;11164;48.818;2.322;2023-04-25T02:47:36;100200.63;;;11.55;43.70
22000;BME280;11164;48.818;2.322;2023-04-25T02:50:01;100192.88;;;11.20;44.17
22000;BME280;11164;48.818;2.322;2023-04-25T02:52:26;100199.38;;;10.93;45.13
22000;BME280;11164;48.818;2.322;2023-04-25T02:54:52;100203.94;;;10.92;44.56
22000;BME280;11164;48.818;2.322;2023-04-25T02:57:17;100195.44;;;10.88;44.78
22000;BME280;11164;48.818;2.322;2023-04-25T02:59:43;100212.13;;;11.37;43.97
22000;BME280;11164;48.818;2.322;2023-04-25T03:02:09;100217.28;;;11.52;43.67
22000;BME280;11164;48.818;2.322;2023-04-25T03:04:35;100209.63;;;11.42;43.71
22000;BME280;11164;48.818;2.322;2023-04-25T03:07:00;100205.25;;;11.41;43.86
22000;BME280;11164;48.818;2.322;2023-04-25T03:09:26;100198.13;;;11.02;44.72
22000;BME280;11164;48.818;2.322;2023-04-25T03:11:51;100200.53;;;11.30;44.07
22000;BME280;11164;48.818;2.322;2023-04-25T03:14:17;100201.97;;;11.33;44.01
22000;BME280;11164;48.818;2.322;2023-04-25T03:16:42;100199.81;;;10.90;44.80
22000;BME280;11164;48.818;2.322;2023-04-25T03:19:07;100196.88;;;10.91;44.60
22000;BME280;11164;48.818;2.322;2023-04-25T03:21:34;100206.22;;;10.95;44.59
22000;BME280;11164;48.818;2.322;2023-04-25T03:24:00;100206.41;;;11.07;44.10
22000;BME280;11164;48.818;2.322;2023-04-25T03:26:26;100210.56;;;11.03;44.24
22000;BME280;11164;48.818;2.322;2023-04-25T03:28:51;100203.88;;;11.19;44.26
22000;BME280;11164;48.818;2.322;2023-04-25T03:31:16;100199.41;;;10.86;44.28
22000;BME280;11164;48.818;2.322;2023-04-25T03:33:42;100204.97;;;10.91;44.35
22000;BME280;11164;48.818;2.322;2023-04-25T03:36:07;100195.22;;;11.03;43.89
22000;BME280;11164;48.818;2.322;2023-04-25T03:38:33;100196.84;;;11.18;43.54
22000;BME280;11164;48.818;2.322;2023-04-25T03:40:58;100183.34;;;11.18;43.41
22000;BME280;11164;48.818;2.322;2023-04-25T03:43:24;100207.13;;;11.41;43.15
22000;BME280;11164;48.818;2.322;2023-04-25T03:45:49;100207.34;;;11.33;43.16
22000;BME280;11164;48.818;2.322;2023-04-25T03:48:15;100208.31;;;11.00;43.93
22000;BME280;11164;48.818;2.322;2023-04-25T03:50:40;100216.00;;;10.83;44.53
22000;BME280;11164;48.818;2.322;2023-04-25T03:53:05;100200.81;;;11.09;43.83
22000;BME280;11164;48.818;2.322;2023-04-25T03:55:31;100204.75;;;11.06;43.87
22000;BME280;11164;48.818;2.322;2023-04-25T03:57:57;100201.03;;;10.94;43.96
22000;BME280;11164;48.818;2.322;2023-04-25T04:00:23;100205.22;;;10.90;44.14
22000;BME280;11164;48.818;2.322;2023-04-25T04:02:49;100201.63;;;11.16;43.56
22000;BME280;11164;48.818;2.322;2023-04-25T04:05:14;100201.63;;;11.16;43.56
22000;BME280;11164;48.818;2.322;2023-04-25T04:07:39;100204.38;;;10.89;44.21
22000;BME280;11164;48.818;2.322;2023-04-25T04:10:10;100210.00;;;10.61;44.66
22000;BME280;11164;48.818;2.322;2023-04-25T04:12:36;100209.97;;;10.54;45.00
22000;BME280;11164;48.818;2.322;2023-04-25T04:15:03;100207.31;;;10.67;44.68
22000;BME280;11164;48.818;2.322;2023-04-25T04:17:29;100209.81;;;10.76;44.63
22000;BME280;11164;48.818;2.322;2023-04-25T04:19:55;100209.13;;;11.00;43.97
22000;BME280;11164;48.818;2.322;2023-04-25T04:22:20;100219.25;;;11.18;43.97
22000;BME280;11164;48.818;2.322;2023-04-25T04:24:45;100221.75;;;11.13;43.71
22000;BME280;11164;48.818;2.322;2023-04-25T04:27:11;100193.84;;;10.61;44.97
22000;BME280;11164;48.818;2.322;2023-04-25T04:29:38;100230.72;;;10.94;44.73
22000;BME280;11164;48.818;2.322;2023-04-25T04:32:03;100230.91;;;11.05;44.46
22000;BME280;11164;48.818;2.322;2023-04-25T04:34:28;100224.91;;;10.83;44.79
22000;BME280;11164;48.818;2.322;2023-04-25T04:36:54;100241.50;;;10.94;44.76
22000;BME280;11164;48.818;2.322;2023-04-25T04:39:20;100241.72;;;10.99;44.71
22000;BME280;11164;48.818;2.322;2023-04-25T04:41:45;100246.50;;;10.97;44.72
22000;BME280;11164;48.818;2.322;2023-04-25T04:44:11;100256.41;;;11.16;44.65
22000;BME280;11164;48.818;2.322;2023-04-25T04:46:37;100259.16;;;10.76;45.64
22000;BME280;11164;48.818;2.322;2023-04-25T04:49:08;100249.38;;;11.02;44.92
22000;BME280;11164;48.818;2.322;2023-04-25T04:51:34;100253.91;;;11.28;44.25
22000;BME280;11164;48.818;2.322;2023-04-25T04:53:59;100264.31;;;11.18;44.68
22000;BME280;11164;48.818;2.322;2023-04-25T04:56:30;100255.13;;;11.32;44.19
22000;BME280;11164;48.818;2.322;2023-04-25T04:58:58;100253.91;;;11.21;44.53
22000;BME280;11164;48.818;2.322;2023-04-25T05:01:25;100261.38;;;11.26;44.48
22000;BME280;11164;48.818;2.322;2023-04-25T05:03:51;100276.94;;;11.24;44.45
22000;BME280;11164;48.818;2.322;2023-04-25T05:06:17;100280.03;;;11.34;44.25
22000;BME280;11164;48.818;2.322;2023-04-25T05:08:43;100271.72;;;11.36;44.24
22000;BME280;11164;48.818;2.322;2023-04-25T05:11:08;100279.63;;;11.24;44.63
22000;BME280;11164;48.818;2.322;2023-04-25T05:13:33;100276.28;;;11.35;44.19
22000;BME280;11164;48.818;2.322;2023-04-25T05:15:59;100273.59;;;11.35;44.33
22000;BME280;11164;48.818;2.322;2023-04-25T05:18:24;100281.72;;;11.29;44.72
22000;BME280;11164;48.818;2.322;2023-04-25T05:20:49;100288.09;;;11.54;44.32
22000;BME280;11164;48.818;2.322;2023-04-25T05:23:15;100290.81;;;11.48;44.23
22000;BME280;11164;48.818;2.322;2023-04-25T05:25:41;100296.59;;;11.51;44.36
22000;BME280;11164;48.818;2.322;2023-04-25T05:28:06;100308.41;;;11.57;44.13
22000;BME280;11164;48.818;2.322;2023-04-25T05:30:32;100314.09;;;11.35;44.78
22000;BME280;11164;48.818;2.322;2023-04-25T05:32:57;100318.00;;;11.46;44.60
22000;BME280;11164;48.818;2.322;2023-04-25T05:35:22;100324.78;;;11.69;44.20
22000;BME280;11164;48.818;2.322;2023-04-25T05:37:48;100321.06;;;11.76;43.88
22000;BME280;11164;48.818;2.322;2023-04-25T05:40:13;100332.09;;;11.75;43.87
22000;BME280;11164;48.818;2.322;2023-04-25T05:42:38;100338.94;;;11.77;44.09
22000;BME280;11164;48.818;2.322;2023-04-25T05:45:04;100338.72;;;11.66;43.81
22000;BME280;11164;48.818;2.322;2023-04-25T05:47:29;100342.69;;;11.63;44.08
22000;BME280;11164;48.818;2.322;2023-04-25T05:49:55;100351.19;;;11.67;43.98
22000;BME280;11164;48.818;2.322;2023-04-25T05:52:20;100359.56;;;11.45;44.39
22000;BME280;11164;48.818;2.322;2023-04-25T05:54:46;100351.19;;;11.60;44.31
22000;BME280;11164;48.818;2.322;2023-04-25T05:57:22;100350.13;;;11.81;44.15
22000;BME280;11164;48.818;2.322;2023-04-25T05:59:47;100351.41;;;11.65;44.02
22000;BME280;11164;48.818;2.322;2023-04-25T06:02:13;100360.56;;;11.57;44.20
22000;BME280;11164;48.818;2.322;2023-04-25T06:04:38;100363.88;;;11.73;43.93
22000;BME280;11164;48.818;2.322;2023-04-25T06:07:03;100369.91;;;11.41;44.87
22000;BME280;11164;48.818;2.322;2023-04-25T06:09:29;100376.59;;;11.19;44.84
22000;BME280;11164;48.818;2.322;2023-04-25T06:11:54;100373.06;;;11.38;44.77
22000;BME280;11164;48.818;2.322;2023-04-25T06:14:19;100384.69;;;11.25;45.01
22000;BME280;11164;48.818;2.322;2023-04-25T06:16:45;100377.44;;;11.26;45.19
22000;BME280;11164;48.818;2.322;2023-04-25T06:19:10;100381.78;;;11.34;44.87
22000;BME280;11164;48.818;2.322;2023-04-25T06:21:35;100385.09;;;11.36;44.85
22000;BME280;11164;48.818;2.322;2023-04-25T06:24:01;100381.16;;;11.45;44.59
22000;BME280;11164;48.818;2.322;2023-04-25T06:26:26;100375.31;;;11.41;44.80
22000;BME280;11164;48.818;2.322;2023-04-25T06:28:52;100378.81;;;11.55;44.83
22000;BME280;11164;48.818;2.322;2023-04-25T06:31:17;100378.84;;;11.75;44.29
22000;BME280;11164;48.818;2.322;2023-04-25T06:33:42;100379.00;;;11.87;44.11
22000;BME280;11164;48.818;2.322;2023-04-25T06:36:08;100373.81;;;11.86;44.08
22000;BME280;11164;48.818;2.322;2023-04-25T06:38:33;100373.13;;;11.97;43.91
22000;BME280;11164;48.818;2.322;2023-04-25T06:40:59;100378.34;;;11.98;44.06
22000;BME280;11164;48.818;2.322;2023-04-25T06:43:25;100375.03;;;11.96;44.02
22000;BME280;11164;48.818;2.322;2023-04-25T06:45:50;100371.28;;;12.04;44.15
22000;BME280;11164;48.818;2.322;2023-04-25T06:48:16;100380.38;;;12.16;43.90
22000;BME280;11164;48.818;2.322;2023-04-25T06:50:41;100385.09;;;12.21;43.91
22000;BME280;11164;48.818;2.322;2023-04-25T06:53:06;100388.56;;;12.35;43.90
22000;BME280;11164;48.818;2.322;2023-04-25T06:55:33;100402.84;;;12.49;43.59
22000;BME280;11164;48.818;2.322;2023-04-25T06:57:59;100394.72;;;12.55;43.72
22000;BME280;11164;48.818;2.322;2023-04-25T07:00:25;100401.78;;;12.56;43.85
22000;BME280;11164;48.818;2.322;2023-04-25T07:02:50;100405.13;;;12.52;43.59
22000;BME280;11164;48.818;2.322;2023-04-25T07:05:16;100403.31;;;12.46;43.64
22000;BME280;11164;48.818;2.322;2023-04-25T07:07:41;100410.13;;;12.55;43.59
22000;BME280;11164;48.818;2.322;2023-04-25T07:10:08;100410.19;;;12.42;43.89
22000;BME280;11164;48.818;2.322;2023-04-25T07:12:33;100416.28;;;12.69;43.50
22000;BME280;11164;48.818;2.322;2023-04-25T07:14:59;100423.66;;;12.48;43.80
22000;BME280;11164;48.818;2.322;2023-04-25T07:17:24;100421.31;;;12.65;43.61
22000;BME280;11164;48.818;2.322;2023-04-25T07:19:50;100421.28;;;12.27;44.19
22000;BME280;11164;48.818;2.322;2023-04-25T07:22:15;100420.31;;;12.08;44.48
22000;BME280;11164;48.818;2.322;2023-04-25T07:24:40;100427.84;;;11.86;44.46
22000;BME280;11164;48.818;2.322;2023-04-25T07:27:06;100429.75;;;11.78;44.68
22000;BME280;11164;48.818;2.322;2023-04-25T07:29:31;100427.34;;;12.09;44.26
22000;BME280;11164;48.818;2.322;2023-04-25T07:31:58;100441.94;;;12.08;44.07
22000;BME280;11164;48.818;2.322;2023-04-25T07:34:24;100434.44;;;12.03;44.01
22000;BME280;11164;48.818;2.322;2023-04-25T07:36:49;100447.38;;;11.54;44.86
22000;BME280;11164;48.818;2.322;2023-04-25T07:39:14;100457.34;;;11.87;44.09
22000;BME280;11164;48.818;2.322;2023-04-25T07:41:40;100454.88;;;11.79;44.17
22000;BME280;11164;48.818;2.322;2023-04-25T07:44:05;100453.84;;;11.87;44.05
22000;BME280;11164;48.818;2.322;2023-04-25T07:46:30;100471.50;;;11.62;44.37
22000;BME280;11164;48.818;2.322;2023-04-25T07:48:56;100464.41;;;11.88;43.96
22000;BME280;11164;48.818;2.322;2023-04-25T07:51:21;100477.72;;;11.63;44.43
22000;BME280;11164;48.818;2.322;2023-04-25T07:53:47;100483.91;;;11.97;43.90
22000;BME280;11164;48.818;2.322;2023-04-25T07:56:12;100481.19;;;12.17;43.50
22000;BME280;11164;48.818;2.322;2023-04-25T07:58:38;100474.75;;;12.18;43.43
22000;BME280;11164;48.818;2.322;2023-04-25T08:01:03;100479.38;;;11.64;44.35
22000;BME280;11164;48.818;2.322;2023-04-25T08:03:29;100501.00;;;11.77;44.26
22000;BME280;11164;48.818;2.322;2023-04-25T08:05:54;100496.63;;;11.63;44.48
22000;BME280;11164;48.818;2.322;2023-04-25T08:08:20;100504.31;;;11.93;43.87
22000;BME280;11164;48.818;2.322;2023-04-25T08:10:46;100516.41;;;12.62;42.83
22000;BME280;11164;48.818;2.322;2023-04-25T08:13:13;100522.72;;;12.43;43.26
22000;BME280;11164;48.818;2.322;2023-04-25T08:15:38;100533.63;;;12.74;42.65
22000;BME280;11164;48.818;2.322;2023-04-25T08:18:03;100522.19;;;13.18;42.31
22000;BME280;11164;48.818;2.322;2023-04-25T08:20:29;100530.84;;;13.01;42.49
22000;BME280;11164;48.818;2.322;2023-04-25T08:22:54;100538.66;;;12.64;42.81
22000;BME280;11164;48.818;2.322;2023-04-25T08:25:20;100538.19;;;12.81;42.78
22000;BME280;11164;48.818;2.322;2023-04-25T08:27:45;100540.50;;;12.70;42.89
22000;BME280;11164;48.818;2.322;2023-04-25T08:30:10;100531.84;;;12.42;43.38
22000;BME280;11164;48.818;2.322;2023-04-25T08:32:36;100542.53;;;12.23;43.60
22000;BME280;11164;48.818;2.322;2023-04-25T08:35:04;100542.06;;;12.40;43.20
22000;BME280;11164;48.818;2.322;2023-04-25T08:37:30;100532.19;;;12.72;42.41
22000;BME280;11164;48.818;2.322;2023-04-25T08:39:55;100551.34;;;12.70;42.71
22000;BME280;11164;48.818;2.322;2023-04-25T08:42:21;100551.97;;;12.59;42.81
22000;BME280;11164;48.818;2.322;2023-04-25T08:44:48;100551.78;;;12.54;42.96
22000;BME280;11164;48.818;2.322;2023-04-25T08:47:14;100541.56;;;13.15;41.91
22000;BME280;11164;48.818;2.322;2023-04-25T08:49:44;100550.78;;;12.42;40.97
22000;BME280;11164;48.818;2.322;2023-04-25T08:52:11;100561.09;;;12.71;42.21
22000;BME280;11164;48.818;2.322;2023-04-25T08:54:42;100555.44;;;12.80;40.94
22000;BME280;11164;48.818;2.322;2023-04-25T08:57:09;100553.69;;;13.05;41.55
22000;BME280;11164;48.818;2.322;2023-04-25T08:59:35;100558.06;;;13.06;41.56
22000;BME280;11164;48.818;2.322;2023-04-25T09:02:03;100571.84;;;12.98;41.61
22000;BME280;11164;48.818;2.322;2023-04-25T09:04:31;100583.72;;;12.97;41.67
22000;BME280;11164;48.818;2.322;2023-04-25T09:06:56;100582.31;;;13.26;41.24
22000;BME280;11164;48.818;2.322;2023-04-25T09:09:23;100582.53;;;13.25;41.04
22000;BME280;11164;48.818;2.322;2023-04-25T09:11:49;100599.72;;;13.05;41.34
22000;BME280;11164;48.818;2.322;2023-04-25T09:14:20;100598.78;;;13.25;41.12
22000;BME280;11164;48.818;2.322;2023-04-25T09:19:21;100601.13;;;13.85;38.10
22000;BME280;11164;48.818;2.322;2023-04-25T09:21:58;100610.34;;;14.09;40.09
22000;BME280;11164;48.818;2.322;2023-04-25T09:24:34;100615.00;;;14.02;39.29
22000;BME280;11164;48.818;2.322;2023-04-25T09:27:03;100619.44;;;13.90;40.39
22000;BME280;11164;48.818;2.322;2023-04-25T09:29:29;100617.75;;;14.20;40.01
22000;BME280;11164;48.818;2.322;2023-04-25T09:34:42;100623.16;;;14.20;39.76
22000;BME280;11164;48.818;2.322;2023-04-25T09:37:11;100631.06;;;14.22;40.10
22000;BME280;11164;48.818;2.322;2023-04-25T09:39:38;100631.56;;;13.87;40.39
22000;BME280;11164;48.818;2.322;2023-04-25T09:42:04;100632.50;;;13.99;40.35
22000;BME280;11164;48.818;2.322;2023-04-25T09:44:30;100630.75;;;13.86;40.52
22000;BME280;11164;48.818;2.322;2023-04-25T09:46:55;100629.03;;;13.60;40.88
22000;BME280;11164;48.818;2.322;2023-04-25T09:49:22;100633.22;;;13.49;40.89
22000;BME280;11164;48.818;2.322;2023-04-25T09:51:58;100640.34;;;13.44;39.75
22000;BME280;11164;48.818;2.322;2023-04-25T09:54:24;100648.34;;;13.25;41.01
22000;BME280;11164;48.818;2.322;2023-04-25T09:56:51;100646.81;;;13.43;40.63
22000;BME280;11164;48.818;2.322;2023-04-25T09:59:21;100649.00;;;13.59;40.20
22000;BME280;11164;48.818;2.322;2023-04-25T10:01:48;100654.84;;;13.63;40.13
22000;BME280;11164;48.818;2.322;2023-04-25T10:04:19;100660.19;;;13.76;39.19
22000;BME280;11164;48.818;2.322;2023-04-25T10:06:48;100663.47;;;13.46;40.15
22000;BME280;11164;48.818;2.322;2023-04-25T10:09:14;100664.31;;;13.40;40.17
22000;BME280;11164;48.818;2.322;2023-04-25T10:11:44;100662.66;;;13.39;40.15
22000;BME280;11164;48.818;2.322;2023-04-25T10:14:12;100662.44;;;14.36;39.01
22000;BME280;11164;48.818;2.322;2023-04-25T10:16:38;100663.38;;;15.11;38.05
22000;BME280;11164;48.818;2.322;2023-04-25T10:19:03;100653.16;;;15.43;37.75
22000;BME280;11164;48.818;2.322;2023-04-25T10:21:31;100656.28;;;15.59;37.66
22000;BME280;11164;48.818;2.322;2023-04-25T10:23:57;100653.84;;;15.69;37.44
22000;BME280;11164;48.818;2.322;2023-04-25T10:26:23;100658.50;;;14.83;38.72
22000;BME280;11164;48.818;2.322;2023-04-25T10:28:59;100668.66;;;14.18;38.71
22000;BME280;11164;48.818;2.322;2023-04-25T10:31:26;100660.19;;;14.33;39.16
22000;BME280;11164;48.818;2.322;2023-04-25T10:33:53;100654.50;;;14.16;39.08
22000;BME280;11164;48.818;2.322;2023-04-25T10:36:19;100650.97;;;14.16;39.10
22000;BME280;11164;48.818;2.322;2023-04-25T10:38:47;100659.63;;;14.50;38.62
22000;BME280;11164;48.818;2.322;2023-04-25T10:41:13;100667.69;;;14.31;38.47
22000;BME280;11164;48.818;2.322;2023-04-25T10:43:43;100662.03;;;14.14;38.54
22000;BME280;11164;48.818;2.322;2023-04-25T10:46:23;100657.06;;;14.30;36.83
22000;BME280;11164;48.818;2.322;2023-04-25T10:48:52;100670.84;;;14.03;38.23
22000;BME280;11164;48.818;2.322;2023-04-25T10:53:45;100665.22;;;14.55;38.03
22000;BME280;11164;48.818;2.322;2023-04-25T10:58:41;100661.22;;;15.01;37.41
22000;BME280;11164;48.818;2.322;2023-04-25T11:01:07;100681.41;;;15.24;37.19
22000;BME280;11164;48.818;2.322;2023-04-25T11:03:32;100676.81;;;14.87;37.42
22000;BME280;11164;48.818;2.322;2023-04-25T11:05:59;100674.38;;;14.79;37.55
22000;BME280;11164;48.818;2.322;2023-04-25T11:08:37;100665.38;;;14.60;37.40
22000;BME280;11164;48.818;2.322;2023-04-25T11:11:08;100682.63;;;14.66;37.45
22000;BME280;11164;48.818;2.322;2023-04-25T11:13:34;100677.25;;;14.40;37.90
22000;BME280;11164;48.818;2.322;2023-04-25T11:15:59;100677.34;;;14.52;37.57
22000;BME280;11164;48.818;2.322;2023-04-25T11:18:26;100674.09;;;15.06;36.57
22000;BME280;11164;48.818;2.322;2023-04-25T11:20:52;100681.22;;;15.37;36.34
22000;BME280;11164;48.818;2.322;2023-04-25T11:23:17;100686.00;;;15.23;36.46
22000;BME280;11164;48.818;2.322;2023-04-25T11:25:43;100682.72;;;15.03;36.67
22000;BME280;11164;48.818;2.322;2023-04-25T11:28:09;100684.19;;;14.98;36.53
22000;BME280;11164;48.818;2.322;2023-04-25T11:30:35;100687.53;;;15.37;36.06
22000;BME280;11164;48.818;2.322;2023-04-25T11:33:00;100688.56;;;15.18;36.80
22000;BME280;11164;48.818;2.322;2023-04-25T11:35:27;100685.47;;;15.33;36.26
22000;BME280;11164;48.818;2.322;2023-04-25T11:37:53;100684.81;;;15.68;35.67
22000;BME280;11164;48.818;2.322;2023-04-25T11:40:18;100680.69;;;16.07;35.32
22000;BME280;11164;48.818;2.322;2023-04-25T11:42:45;100682.19;;;16.57;34.74
22000;BME280;11164;48.818;2.322;2023-04-25T11:45:11;100682.78;;;16.59;35.05
22000;BME280;11164;48.818;2.322;2023-04-25T11:47:37;100682.06;;;16.40;35.06
22000;BME280;11164;48.818;2.322;2023-04-25T11:50:04;100678.84;;;16.31;35.22
22000;BME280;11164;48.818;2.322;2023-04-25T11:52:44;100679.13;;;15.88;34.14
22000;BME280;11164;48.818;2.322;2023-04-25T11:55:13;100672.56;;;16.19;34.97
22000;BME280;11164;48.818;2.322;2023-04-25T11:57:39;100678.69;;;16.15;35.28
22000;BME280;11164;48.818;2.322;2023-04-25T12:00:15;100675.16;;;16.14;32.87
22000;BME280;11164;48.818;2.322;2023-04-25T12:03:02;100678.75;;;16.38;32.67
22000;BME280;11164;48.818;2.322;2023-04-25T12:05:30;100681.41;;;16.15;35.07
22000;BME280;11164;48.818;2.322;2023-04-25T12:07:58;100682.03;;;15.74;35.47
22000;BME280;11164;48.818;2.322;2023-04-25T12:10:37;100678.50;;;15.86;34.88
22000;BME280;11164;48.818;2.322;2023-04-25T12:13:18;100679.31;;;15.56;34.71
22000;BME280;11164;48.818;2.322;2023-04-25T12:15:44;100679.59;;;15.66;35.33
22000;BME280;11164;48.818;2.322;2023-04-25T12:18:09;100676.41;;;15.69;35.23
22000;BME280;11164;48.818;2.322;2023-04-25T12:20:35;100681.38;;;15.42;35.42
22000;BME280;11164;48.818;2.322;2023-04-25T12:23:05;100678.22;;;15.45;35.15
22000;BME280;11164;48.818;2.322;2023-04-25T12:25:41;100694.00;;;15.36;34.95
22000;BME280;11164;48.818;2.322;2023-04-25T12:28:20;100683.38;;;14.98;33.78
22000;BME280;11164;48.818;2.322;2023-04-25T12:31:05;100703.91;;;14.69;34.15
22000;BME280;11164;48.818;2.322;2023-04-25T12:33:32;100694.91;;;14.93;35.26
22000;BME280;11164;48.818;2.322;2023-04-25T12:35:58;100707.91;;;15.10;35.21
22000;BME280;11164;48.818;2.322;2023-04-25T12:38:29;100705.25;;;15.22;35.01
22000;BME280;11164;48.818;2.322;2023-04-25T12:40:56;100711.81;;;15.32;34.97
22000;BME280;11164;48.818;2.322;2023-04-25T12:43:22;100712.56;;;15.21;34.92
22000;BME280;11164;48.818;2.322;2023-04-25T12:45:52;100710.06;;;15.38;33.68
22000;BME280;11164;48.818;2.322;2023-04-25T12:48:18;100703.97;;;15.43;34.64
22000;BME280;11164;48.818;2.322;2023-04-25T12:50:44;100709.34;;;15.80;34.19
22000;BME280;11164;48.818;2.322;2023-04-25T12:53:10;100708.06;;;16.36;33.57
22000;BME280;11164;48.818;2.322;2023-04-25T12:55:37;100700.19;;;16.04;34.12
22000;BME280;11164;48.818;2.322;2023-04-25T12:58:02;100709.56;;;16.20;33.99